createdAt,value
2023-03-23T15:59:38.586Z,19.01
2023-03-23T16:02:05.131Z,18.98
2023-03-23T16:04:32.126Z,18.94
2023-03-23T16:06:59.185Z,18.91
2023-03-23T16:09:26.282Z,18.82
2023-03-23T16:11:52.842Z,18.72
2023-03-23T16:14:19.395Z,18.63
2023-03-23T16:16:51.238Z,18.63
2023-03-23T16:19:20.430Z,18.58
2023-03-23T16:21:47.146Z,18.52
2023-03-23T16:24:13.687Z,18.43
2023-03-23T16:26:41.017Z,18.37
2023-03-23T16:29:33.729Z,18.26
2023-03-23T16:32:02.946Z,18.20
2023-03-23T16:34:33.028Z,18.11
2023-03-23T16:36:59.584Z,18.08
2023-03-23T16:39:26.175Z,17.97
2023-03-23T16:41:52.674Z,17.90
2023-03-23T16:44:19.437Z,17.85
2023-03-23T16:46:46.033Z,17.76
2023-03-23T16:49:12.515Z,17.71
2023-03-23T16:51:40.185Z,17.63
2023-03-23T16:54:07.856Z,17.54
2023-03-23T16:56:34.389Z,17.46
2023-03-23T16:59:01.082Z,17.38
2023-03-23T17:01:27.680Z,17.34
2023-03-23T17:03:55.936Z,17.29
2023-03-23T17:06:22.498Z,17.23
2023-03-23T17:08:48.999Z,17.16
2023-03-23T17:11:15.801Z,17.09
2023-03-23T17:13:42.312Z,17.04
2023-03-23T17:16:09.183Z,16.98
2023-03-23T17:18:35.775Z,16.87
2023-03-23T17:21:02.298Z,16.82
2023-03-23T17:23:29.235Z,16.74
2023-03-23T17:25:56.155Z,16.67
2023-03-23T17:28:22.725Z,16.60
2023-03-23T17:30:51.154Z,16.52
2023-03-23T17:33:17.761Z,16.44
2023-03-23T17:35:46.831Z,16.34
2023-03-23T17:38:13.944Z,16.25
2023-03-23T17:40:40.471Z,16.12
2023-03-23T17:43:07.047Z,16.04
2023-03-23T17:45:33.700Z,16.01
2023-03-23T17:48:00.827Z,15.99
2023-03-23T17:50:27.800Z,15.98
2023-03-23T17:52:54.449Z,15.95
2023-03-23T17:55:21.061Z,15.92
2023-03-23T17:57:47.595Z,15.89
2023-03-23T18:00:15.308Z,15.87
2023-03-23T18:02:41.925Z,15.87
2023-03-23T18:05:09.892Z,15.88
2023-03-23T18:07:36.961Z,15.87
2023-03-23T18:10:11.522Z,15.87
2023-03-23T18:12:41.600Z,15.85
2023-03-23T18:15:08.991Z,15.85
2023-03-23T18:17:36.107Z,15.85
2023-03-23T18:20:07.426Z,15.82
2023-03-23T18:22:34.199Z,15.78
2023-03-23T18:25:02.623Z,15.75
2023-03-23T18:27:29.128Z,15.71
2023-03-23T18:29:59.000Z,15.71
2023-03-23T18:32:30.467Z,15.69
2023-03-23T18:34:57.090Z,15.66
2023-03-23T18:37:24.782Z,15.64
2023-03-23T18:39:51.487Z,15.63
2023-03-23T18:42:18.228Z,15.61
2023-03-23T18:44:44.777Z,15.61
2023-03-23T18:47:13.837Z,15.59
2023-03-23T18:49:40.343Z,15.56
2023-03-23T18:52:06.897Z,15.57
2023-03-23T18:54:34.894Z,15.57
2023-03-23T18:57:02.936Z,15.55
2023-03-23T18:59:34.449Z,15.55
2023-03-23T19:02:01.129Z,15.53
2023-03-23T19:04:31.534Z,15.53
2023-03-23T19:06:59.387Z,15.51
2023-03-23T19:09:26.069Z,15.49
2023-03-23T19:11:52.615Z,15.48
2023-03-23T19:14:19.418Z,15.46
2023-03-23T19:16:45.910Z,15.42
2023-03-23T19:19:13.227Z,15.39
2023-03-23T19:21:40.711Z,15.31
2023-03-23T19:24:08.394Z,15.26
2023-03-23T19:26:38.557Z,15.14
2023-03-23T19:31:43.329Z,14.90
2023-03-23T19:34:11.572Z,14.78
2023-03-23T19:36:39.439Z,14.69
2023-03-23T19:39:07.597Z,14.58
2023-03-23T19:41:35.019Z,14.48
2023-03-23T19:44:03.560Z,14.38
2023-03-23T19:46:31.569Z,14.25
2023-03-23T19:48:58.923Z,14.10
2023-03-23T19:51:27.200Z,14.00
2023-03-23T19:53:56.312Z,13.91
2023-03-23T19:56:23.461Z,13.82
2023-03-23T19:58:50.879Z,13.70
2023-03-23T20:01:18.237Z,13.62
2023-03-23T20:03:45.675Z,13.56
2023-03-23T20:06:15.373Z,13.52
2023-03-23T20:08:44.964Z,13.47
2023-03-23T20:11:14.407Z,13.36
2023-03-23T20:13:41.607Z,13.32
2023-03-23T20:16:09.070Z,13.20
2023-03-23T20:18:37.650Z,13.10
2023-03-23T20:21:10.784Z,13.07
2023-03-23T20:23:38.447Z,13.07
2023-03-23T20:26:09.332Z,12.94
2023-03-23T20:28:35.996Z,12.88
2023-03-23T20:31:23.382Z,12.87
2023-03-23T20:34:00.581Z,12.88
2023-03-23T20:36:40.412Z,12.80
2023-03-23T20:39:13.413Z,12.77
2023-03-23T20:41:40.575Z,12.73
2023-03-23T20:44:13.689Z,12.73
2023-03-23T20:46:41.267Z,12.77
2023-03-23T20:49:08.437Z,12.69
2023-03-23T20:51:35.044Z,12.68
2023-03-23T20:54:02.128Z,12.67
2023-03-23T20:56:28.965Z,12.68
2023-03-23T20:58:55.991Z,12.70
2023-03-23T21:01:22.834Z,12.67
2023-03-23T21:03:52.187Z,12.70
2023-03-23T21:06:19.467Z,12.69
2023-03-23T21:08:46.783Z,12.74
2023-03-23T21:11:21.505Z,12.72
2023-03-23T21:13:48.454Z,12.74
2023-03-23T21:16:15.196Z,12.76
2023-03-23T21:18:41.953Z,12.76
2023-03-23T21:21:11.158Z,12.77
2023-03-23T21:23:38.970Z,12.74
2023-03-23T21:26:08.205Z,12.71
2023-03-23T21:28:34.778Z,12.63
2023-03-23T21:31:03.722Z,12.53
2023-03-23T21:33:30.794Z,12.52
2023-03-23T21:35:57.598Z,12.52
2023-03-23T21:38:26.515Z,12.46
2023-03-23T21:40:54.742Z,12.42
2023-03-23T21:43:27.382Z,12.35
2023-03-23T21:45:56.161Z,12.37
2023-03-23T21:48:25.034Z,12.38
2023-03-23T21:50:52.852Z,12.35
2023-03-23T21:53:20.385Z,12.32
2023-03-23T21:55:54.602Z,12.23
2023-03-23T21:58:24.476Z,12.23
2023-03-23T22:00:54.181Z,12.26
2023-03-23T22:03:24.971Z,12.28
2023-03-23T22:05:54.391Z,12.22
2023-03-23T22:08:23.265Z,12.22
2023-03-23T22:11:01.423Z,12.24
2023-03-23T22:13:30.648Z,12.27
2023-03-23T22:15:58.750Z,12.29
2023-03-23T22:18:26.035Z,12.29
2023-03-23T22:20:53.349Z,12.22
2023-03-23T22:23:20.334Z,12.23
2023-03-23T22:25:47.227Z,12.18
2023-03-23T22:28:13.782Z,12.18
2023-03-23T22:30:40.640Z,12.19
2023-03-23T22:33:07.254Z,12.23
2023-03-23T22:35:33.970Z,12.22
2023-03-23T22:38:03.127Z,12.23
2023-03-23T22:40:31.941Z,12.22
2023-03-23T22:42:58.621Z,12.22
2023-03-23T22:45:26.165Z,12.21
2023-03-23T22:47:53.137Z,12.21
2023-03-23T22:50:21.574Z,12.23
2023-03-23T22:52:48.552Z,12.18
2023-03-23T22:55:15.489Z,12.14
2023-03-23T22:57:42.199Z,12.10
2023-03-23T23:00:14.942Z,12.09
2023-03-23T23:02:45.399Z,12.10
2023-03-23T23:05:13.296Z,12.11
2023-03-23T23:07:40.535Z,12.06
2023-03-23T23:10:07.489Z,12.06
2023-03-23T23:12:35.118Z,12.02
2023-03-23T23:15:03.824Z,12.00
2023-03-23T23:17:32.113Z,11.98
2023-03-23T23:19:59.912Z,11.97
2023-03-23T23:22:26.979Z,11.96
2023-03-23T23:24:53.580Z,11.97
2023-03-23T23:27:20.572Z,11.96
2023-03-23T23:29:47.235Z,11.99
2023-03-23T23:32:13.861Z,11.99
2023-03-23T23:34:40.399Z,11.97
2023-03-23T23:37:08.999Z,11.94
2023-03-23T23:39:38.475Z,11.92
2023-03-23T23:42:05.928Z,11.91
2023-03-23T23:44:33.104Z,11.91
2023-03-23T23:46:59.727Z,11.92
2023-03-23T23:49:28.747Z,11.94
2023-03-23T23:51:56.554Z,11.94
2023-03-23T23:54:29.573Z,11.94
2023-03-23T23:57:01.001Z,11.94
2023-03-23T23:59:28.973Z,11.98
